XRC1025 DTTX-DTTA
Flight info
| Callsign | XRC1025 |
|---|---|
| Flight time | 0h 31m |
| Altitude | 16000 |
| Route | KADRA1B KADRA A411 ELJEM UA411 VAXAL |
| Aircraft | B738/M-SDE2E3FGHIRWXY/LB1 |
Departure
| Time | 2026-04-24 10:07 |
|---|---|
| Airport | Sfax Thyna International Airport (DTTX) |
Arrival
| Time | 2026-04-24 10:38 |
|---|---|
| Airport | Tunis Carthage International Airport (DTTA) |
| Time | Latitude | Longitude | Altitude | Speed | Heading |
|---|---|---|---|---|---|
| 2026-04-24 09:58 | 34.72279 | 10.69077 | 73 ft | 0 kts | 58° |
| 2026-04-24 10:05 | 34.72277 | 10.69084 | 73 ft | 2 kts | 99° |
| 2026-04-24 10:05 | 34.72256 | 10.69097 | 67 ft | 4 kts | 177° |
| 2026-04-24 10:05 | 34.72225 | 10.69085 | 69 ft | 5 kts | 201° |
| 2026-04-24 10:05 | 34.72166 | 10.69042 | 68 ft | 15 kts | 219° |
| 2026-04-24 10:06 | 34.72101 | 10.68931 | 72 ft | 16 kts | 238° |
| 2026-04-24 10:06 | 34.72003 | 10.68897 | 66 ft | 38 kts | 151° |
| 2026-04-24 10:06 | 34.71730 | 10.69103 | 72 ft | 100 kts | 148° |
| 2026-04-24 10:07 | 34.70523 | 10.69966 | 226 ft | 188 kts | 148° |
| 2026-04-24 10:07 | 34.69759 | 10.70502 | 962 ft | 191 kts | 147° |
| 2026-04-24 10:07 | 34.68303 | 10.71742 | 2444 ft | 192 kts | 123° |
| 2026-04-24 10:07 | 34.67781 | 10.73258 | 3119 ft | 205 kts | 94° |
| 2026-04-24 10:08 | 34.67966 | 10.75060 | 3422 ft | 226 kts | 66° |
| 2026-04-24 10:08 | 34.68889 | 10.76604 | 4072 ft | 231 kts | 37° |
| 2026-04-24 10:08 | 34.70420 | 10.77397 | 4339 ft | 251 kts | 8° |
| 2026-04-24 10:08 | 34.71585 | 10.77423 | 4152 ft | 256 kts | 357° |
| 2026-04-24 10:09 | 34.73954 | 10.76862 | 4105 ft | 260 kts | 345° |
| 2026-04-24 10:09 | 34.75649 | 10.76183 | 4952 ft | 252 kts | 343° |
| 2026-04-24 10:09 | 34.76754 | 10.75758 | 5814 ft | 246 kts | 344° |
| 2026-04-24 10:09 | 34.78435 | 10.75178 | 6492 ft | 262 kts | 345° |
| 2026-04-24 10:10 | 34.80228 | 10.74603 | 7327 ft | 266 kts | 346° |
| 2026-04-24 10:10 | 34.81995 | 10.74074 | 8530 ft | 256 kts | 346° |
| 2026-04-24 10:10 | 34.83701 | 10.73582 | 9688 ft | 251 kts | 347° |
| 2026-04-24 10:10 | 34.85464 | 10.73148 | 10248 ft | 268 kts | 348° |
| 2026-04-24 10:11 | 34.87389 | 10.72715 | 10483 ft | 296 kts | 349° |
| 2026-04-24 10:11 | 34.89507 | 10.72220 | 10668 ft | 322 kts | 348° |
| 2026-04-24 10:11 | 34.91784 | 10.71663 | 10920 ft | 344 kts | 348° |
| 2026-04-24 10:11 | 34.94166 | 10.71085 | 11533 ft | 352 kts | 348° |
| 2026-04-24 10:12 | 34.96573 | 10.70535 | 12357 ft | 354 kts | 352° |
| 2026-04-24 10:12 | 34.99050 | 10.70445 | 13169 ft | 357 kts | 1° |
| 2026-04-24 10:12 | 35.01544 | 10.70592 | 13943 ft | 361 kts | 2° |
| 2026-04-24 10:12 | 35.04065 | 10.70776 | 14615 ft | 365 kts | 2° |
| 2026-04-24 10:13 | 35.06584 | 10.70955 | 15284 ft | 369 kts | 2° |
| 2026-04-24 10:13 | 35.09166 | 10.71125 | 15902 ft | 372 kts | 2° |
| 2026-04-24 10:13 | 35.11746 | 10.71281 | 16113 ft | 373 kts | 1° |
| 2026-04-24 10:13 | 35.14391 | 10.71430 | 16149 ft | 385 kts | 1° |
| 2026-04-24 10:14 | 35.17079 | 10.71575 | 16151 ft | 389 kts | 1° |
| 2026-04-24 10:14 | 35.19786 | 10.71719 | 16152 ft | 388 kts | 1° |
| 2026-04-24 10:14 | 35.22483 | 10.71862 | 16153 ft | 388 kts | 1° |
| 2026-04-24 10:14 | 35.25183 | 10.72005 | 16151 ft | 389 kts | 1° |
| 2026-04-24 10:15 | 35.27890 | 10.72147 | 16155 ft | 389 kts | 1° |
| 2026-04-24 10:15 | 35.30594 | 10.72290 | 16151 ft | 389 kts | 1° |
| 2026-04-24 10:15 | 35.33294 | 10.72433 | 16153 ft | 388 kts | 1° |
| 2026-04-24 10:15 | 35.35996 | 10.72576 | 16153 ft | 388 kts | 1° |
| 2026-04-24 10:16 | 35.38697 | 10.72719 | 16151 ft | 388 kts | 1° |
| 2026-04-24 10:16 | 35.41388 | 10.72862 | 16153 ft | 388 kts | 1° |
| 2026-04-24 10:16 | 35.44087 | 10.73008 | 16158 ft | 388 kts | 1° |
| 2026-04-24 10:16 | 35.46790 | 10.73161 | 16159 ft | 388 kts | 1° |
| 2026-04-24 10:17 | 35.49456 | 10.73313 | 16152 ft | 388 kts | 1° |
| 2026-04-24 10:17 | 35.52159 | 10.73468 | 16160 ft | 388 kts | 1° |
| 2026-04-24 10:17 | 35.54857 | 10.73623 | 16161 ft | 388 kts | 1° |
| 2026-04-24 10:17 | 35.57567 | 10.73778 | 16159 ft | 388 kts | 1° |
| 2026-04-24 10:18 | 35.60232 | 10.73929 | 16156 ft | 388 kts | 1° |
| 2026-04-24 10:18 | 35.62927 | 10.74083 | 16159 ft | 388 kts | 1° |
| 2026-04-24 10:18 | 35.65657 | 10.74238 | 16157 ft | 388 kts | 1° |
| 2026-04-24 10:18 | 35.68321 | 10.74390 | 16156 ft | 387 kts | 1° |
| 2026-04-24 10:19 | 35.71020 | 10.74544 | 16153 ft | 387 kts | 1° |
| 2026-04-24 10:19 | 35.73708 | 10.74625 | 16154 ft | 387 kts | 356° |
| 2026-04-24 10:19 | 35.76377 | 10.74225 | 16168 ft | 385 kts | 348° |
| 2026-04-24 10:19 | 35.78951 | 10.73306 | 16162 ft | 385 kts | 339° |
| 2026-04-24 10:20 | 35.81435 | 10.72147 | 16151 ft | 375 kts | 339° |
| 2026-04-24 10:20 | 35.83810 | 10.71013 | 16144 ft | 359 kts | 339° |
| 2026-04-24 10:20 | 35.86123 | 10.69909 | 16150 ft | 355 kts | 339° |
| 2026-04-24 10:20 | 35.88427 | 10.68814 | 16152 ft | 353 kts | 339° |
| 2026-04-24 10:21 | 35.90720 | 10.67732 | 15976 ft | 354 kts | 339° |
| 2026-04-24 10:21 | 35.93004 | 10.66659 | 15649 ft | 349 kts | 339° |
| 2026-04-24 10:21 | 35.95281 | 10.65592 | 15207 ft | 347 kts | 339° |
| 2026-04-24 10:21 | 35.97501 | 10.64553 | 14757 ft | 344 kts | 339° |
| 2026-04-24 10:22 | 35.99736 | 10.63507 | 14299 ft | 341 kts | 339° |
| 2026-04-24 10:22 | 36.01942 | 10.62475 | 13826 ft | 339 kts | 339° |
| 2026-04-24 10:22 | 36.04149 | 10.61442 | 13312 ft | 337 kts | 339° |
| 2026-04-24 10:22 | 36.06328 | 10.60422 | 12831 ft | 334 kts | 339° |
| 2026-04-24 10:23 | 36.08493 | 10.59407 | 12366 ft | 331 kts | 339° |
| 2026-04-24 10:23 | 36.10648 | 10.58396 | 11906 ft | 329 kts | 339° |
| 2026-04-24 10:23 | 36.12779 | 10.57396 | 11460 ft | 327 kts | 339° |
| 2026-04-24 10:23 | 36.14875 | 10.56412 | 11013 ft | 325 kts | 339° |
| 2026-04-24 10:24 | 36.16955 | 10.55435 | 10869 ft | 314 kts | 339° |
| 2026-04-24 10:24 | 36.18964 | 10.54491 | 10708 ft | 304 kts | 339° |
| 2026-04-24 10:24 | 36.20910 | 10.53576 | 10590 ft | 294 kts | 339° |
| 2026-04-24 10:24 | 36.22790 | 10.52691 | 10467 ft | 284 kts | 339° |
| 2026-04-24 10:25 | 36.24612 | 10.51833 | 10349 ft | 276 kts | 339° |
| 2026-04-24 10:25 | 36.26381 | 10.51001 | 10216 ft | 268 kts | 339° |
| 2026-04-24 10:25 | 36.28101 | 10.50187 | 10046 ft | 262 kts | 337° |
| 2026-04-24 10:25 | 36.29694 | 10.49096 | 9734 ft | 262 kts | 326° |
| 2026-04-24 10:26 | 36.31159 | 10.47793 | 9413 ft | 262 kts | 323° |
| 2026-04-24 10:26 | 36.32612 | 10.46434 | 9122 ft | 261 kts | 323° |
| 2026-04-24 10:26 | 36.34064 | 10.45075 | 8825 ft | 260 kts | 323° |
| 2026-04-24 10:26 | 36.35505 | 10.43734 | 8539 ft | 259 kts | 323° |
| 2026-04-24 10:27 | 36.36950 | 10.42399 | 8242 ft | 259 kts | 324° |
| 2026-04-24 10:27 | 36.38401 | 10.41066 | 7964 ft | 259 kts | 323° |
| 2026-04-24 10:27 | 36.39856 | 10.39734 | 7676 ft | 259 kts | 324° |
| 2026-04-24 10:27 | 36.41310 | 10.38408 | 7381 ft | 260 kts | 323° |
| 2026-04-24 10:28 | 36.42752 | 10.37092 | 7098 ft | 261 kts | 323° |
| 2026-04-24 10:28 | 36.44214 | 10.35758 | 6794 ft | 261 kts | 323° |
| 2026-04-24 10:28 | 36.45677 | 10.34424 | 6512 ft | 261 kts | 323° |
| 2026-04-24 10:28 | 36.47138 | 10.33092 | 6211 ft | 261 kts | 324° |
| 2026-04-24 10:29 | 36.48607 | 10.31757 | 5804 ft | 264 kts | 324° |
| 2026-04-24 10:29 | 36.50094 | 10.30400 | 5467 ft | 266 kts | 324° |
| 2026-04-24 10:29 | 36.51589 | 10.29036 | 5144 ft | 266 kts | 324° |
| 2026-04-24 10:29 | 36.53080 | 10.27676 | 4837 ft | 266 kts | 324° |
| 2026-04-24 10:30 | 36.54572 | 10.26314 | 4522 ft | 266 kts | 324° |
| 2026-04-24 10:30 | 36.56070 | 10.24947 | 4209 ft | 266 kts | 324° |
| 2026-04-24 10:30 | 36.57541 | 10.23603 | 4077 ft | 258 kts | 325° |
| 2026-04-24 10:30 | 36.58965 | 10.22304 | 3949 ft | 250 kts | 325° |
| 2026-04-24 10:31 | 36.60323 | 10.21061 | 3842 ft | 241 kts | 325° |
| 2026-04-24 10:31 | 36.61637 | 10.19854 | 3777 ft | 227 kts | 325° |
| 2026-04-24 10:31 | 36.62879 | 10.18718 | 3655 ft | 216 kts | 326° |
| 2026-04-24 10:31 | 36.64108 | 10.17756 | 3529 ft | 201 kts | 347° |
| 2026-04-24 10:32 | 36.65420 | 10.17720 | 3465 ft | 187 kts | 7° |
| 2026-04-24 10:32 | 36.66729 | 10.17871 | 3242 ft | 190 kts | 7° |
| 2026-04-24 10:32 | 36.68023 | 10.18092 | 3134 ft | 186 kts | 12° |
| 2026-04-24 10:32 | 36.69301 | 10.18406 | 2960 ft | 188 kts | 13° |
| 2026-04-24 10:33 | 36.70591 | 10.18752 | 2699 ft | 189 kts | 14° |
| 2026-04-24 10:33 | 36.71835 | 10.19070 | 2507 ft | 175 kts | 13° |
| 2026-04-24 10:33 | 36.73042 | 10.19270 | 2234 ft | 175 kts | 8° |
| 2026-04-24 10:33 | 36.74272 | 10.19380 | 1960 ft | 179 kts | 5° |
| 2026-04-24 10:34 | 36.75286 | 10.19363 | 1834 ft | 176 kts | 359° |
| 2026-04-24 10:36 | 36.75788 | 10.19320 | 1853 ft | 161 kts | 0° |
| 2026-04-24 10:36 | 36.76801 | 10.19487 | 1678 ft | 143 kts | 21° |
| 2026-04-24 10:36 | 36.77718 | 10.19955 | 1422 ft | 144 kts | 27° |
| 2026-04-24 10:37 | 36.78604 | 10.20500 | 1245 ft | 142 kts | 28° |
| 2026-04-24 10:37 | 36.79488 | 10.21010 | 984 ft | 139 kts | 24° |
| 2026-04-24 10:37 | 36.80419 | 10.21348 | 779 ft | 141 kts | 15° |
| 2026-04-24 10:37 | 36.81371 | 10.21667 | 642 ft | 143 kts | 16° |
| 2026-04-24 10:38 | 36.82348 | 10.21932 | 438 ft | 145 kts | 13° |
| 2026-04-24 10:38 | 36.83324 | 10.22214 | 224 ft | 143 kts | 13° |
| 2026-04-24 10:38 | 36.84282 | 10.22484 | 35 ft | 136 kts | 14° |
| 2026-04-24 10:38 | 36.84933 | 10.22654 | 32 ft | 34 kts | 12° |
| 2026-04-24 10:39 | 36.85071 | 10.22683 | 34 ft | 19 kts | 356° |
| 2026-04-24 10:39 | 36.85152 | 10.22566 | 35 ft | 19 kts | 288° |
| 2026-04-24 10:39 | 36.85101 | 10.22438 | 32 ft | 20 kts | 197° |
| 2026-04-24 10:39 | 36.84973 | 10.22386 | 30 ft | 19 kts | 194° |
| 2026-04-24 10:40 | 36.84843 | 10.22349 | 29 ft | 19 kts | 192° |
| 2026-04-24 10:40 | 36.84717 | 10.22315 | 29 ft | 18 kts | 192° |
| 2026-04-24 10:40 | 36.84595 | 10.22282 | 29 ft | 18 kts | 191° |
| 2026-04-24 10:40 | 36.84478 | 10.22252 | 29 ft | 17 kts | 192° |
| 2026-04-24 10:41 | 36.84365 | 10.22222 | 29 ft | 16 kts | 192° |
| 2026-04-24 10:41 | 36.84257 | 10.22193 | 30 ft | 15 kts | 192° |
| 2026-04-24 10:41 | 36.84156 | 10.22165 | 30 ft | 15 kts | 192° |
| 2026-04-24 10:41 | 36.84058 | 10.22138 | 30 ft | 14 kts | 192° |
| 2026-04-24 10:42 | 36.83964 | 10.22112 | 30 ft | 13 kts | 192° |
| 2026-04-24 10:42 | 36.83886 | 10.22073 | 29 ft | 11 kts | 248° |
| 2026-04-24 10:42 | 36.83892 | 10.21984 | 29 ft | 9 kts | 320° |
| 2026-04-24 10:42 | 36.83933 | 10.21977 | 29 ft | 0 kts | 358° |
| 2026-04-24 10:43 | 36.83936 | 10.21977 | 29 ft | 1 kts | 359° |
| 2026-04-24 10:43 | 36.83947 | 10.21978 | 29 ft | 1 kts | 1° |
| 2026-04-24 10:43 | 36.83960 | 10.21979 | 29 ft | 1 kts | 5° |
| 2026-04-24 10:43 | 36.83970 | 10.21980 | 29 ft | 1 kts | 5° |
| 2026-04-24 10:44 | 36.83980 | 10.21981 | 29 ft | 2 kts | 5° |
| 2026-04-24 10:44 | 36.83989 | 10.21982 | 29 ft | 2 kts | 5° |
| 2026-04-24 10:44 | 36.83996 | 10.21983 | 29 ft | 0 kts | 6° |
| 2026-04-24 10:45 | 36.83999 | 10.21983 | 29 ft | 1 kts | 6° |
| 2026-04-24 10:45 | 36.84000 | 10.21983 | 29 ft | 0 kts | 6° |